Time;durP1;ratioP1;P1;durP2;ratioP2;P2;SDS_P1;SDS_P2;PMS_P1;PMS_P2;Temp;Humidity;BMP_temperature;BMP_pressure;BME280_temperature;BME280_humidity;BME280_pressure;Samples;Min_cycle;Max_cycle;Signal;HPM_P1;HPM_P2
2022/09/27 00:00:02;;;;;;;2.10;0.37;;;10.40;99.90;;;;;;5075337;28;20639;-87
2022/09/27 00:02:27;;;;;;;1.20;0.50;;;10.40;99.90;;;;;;5075694;28;20180;-88
2022/09/27 00:04:54;;;;;;;3.43;0.70;;;10.40;99.90;;;;;;5057773;28;20456;-87
2022/09/27 00:07:20;;;;;;;1.00;0.40;;;10.40;99.90;;;;;;5057729;28;20171;-87
2022/09/27 00:09:45;;;;;;;1.03;0.17;;;10.40;99.90;;;;;;5057566;28;20885;-87
2022/09/27 00:12:10;;;;;;;0.60;0.30;;;10.40;99.90;;;;;;5057531;28;20179;-86
2022/09/27 00:14:36;;;;;;;1.50;0.20;;;10.30;99.90;;;;;;5075170;28;20212;-85
2022/09/27 00:17:01;;;;;;;1.53;0.63;;;10.40;99.90;;;;;;5075426;28;20195;-84
2022/09/27 00:19:27;;;;;;;3.40;0.60;;;10.40;99.90;;;;;;5075358;28;20220;-86
2022/09/27 00:21:53;;;;;;;1.97;0.70;;;10.40;99.90;;;;;;5075409;28;20210;-86
2022/09/27 00:24:20;;;;;;;0.60;0.37;;;10.40;99.90;;;;;;5075170;28;20295;-85
2022/09/27 00:26:46;;;;;;;0.83;0.50;;;10.40;99.90;;;;;;5075299;28;20169;-87
2022/09/27 00:29:13;;;;;;;1.00;0.30;;;10.40;99.90;;;;;;5074907;28;20781;-86
2022/09/27 00:31:39;;;;;;;1.37;0.40;;;10.40;99.90;;;;;;5075213;28;20543;-86
2022/09/27 00:34:06;;;;;;;1.67;0.33;;;10.40;99.90;;;;;;5057365;28;20985;-87
2022/09/27 00:36:32;;;;;;;0.97;0.50;;;10.40;99.90;;;;;;5075286;28;20441;-88
2022/09/27 00:38:59;;;;;;;1.30;0.50;;;10.50;99.90;;;;;;5075330;28;20419;-85
2022/09/27 00:41:34;;;;;;;1.80;0.80;;;10.40;99.90;;;;;;5075157;28;20483;-89
2022/09/27 00:44:03;;;;;;;1.30;0.70;;;10.40;99.90;;;;;;5056836;28;20847;-88
2022/09/27 00:46:49;;;;;;;1.73;0.53;;;10.30;99.90;;;;;;5057002;28;20495;-87
2022/09/27 00:49:45;;;;;;;0.90;0.30;;;10.30;99.90;;;;;;5075080;28;20421;-89
2022/09/27 00:52:17;;;;;;;1.07;0.67;;;10.30;99.90;;;;;;5057064;28;20893;-88
2022/09/27 00:54:49;;;;;;;2.90;0.80;;;10.30;99.90;;;;;;5074935;28;20398;-90
2022/09/27 00:57:15;;;;;;;1.30;0.60;;;10.30;99.90;;;;;;5057358;28;20411;-90
2022/09/27 00:59:49;;;;;;;2.10;0.70;;;10.30;99.90;;;;;;5057090;28;20692;-89
2022/09/27 01:02:14;;;;;;;1.23;0.57;;;10.30;99.90;;;;;;5075430;28;20409;-90
2022/09/27 01:04:42;;;;;;;1.37;0.60;;;10.40;99.90;;;;;;5086991;28;20463;-89
2022/09/27 01:07:08;;;;;;;1.63;0.53;;;10.30;99.90;;;;;;5085918;28;20167;-89
2022/09/27 01:09:34;;;;;;;1.27;0.93;;;10.30;99.90;;;;;;5065039;28;20778;-89
2022/09/27 01:12:25;;;;;;;1.50;0.40;;;10.30;99.90;;;;;;5082032;28;20163;-90
2022/09/27 01:15:28;;;;;;;1.07;0.87;;;10.40;99.90;;;;;;5058304;28;20407;-88
2022/09/27 01:18:22;;;;;;;1.77;0.83;;;10.30;99.90;;;;;;5057041;28;20432;-89
2022/09/27 01:21:25;;;;;;;2.00;0.37;;;10.30;99.90;;;;;;5074777;28;20460;-87
2022/09/27 01:24:16;;;;;;;1.00;0.60;;;10.30;99.90;;;;;;5074425;28;20514;-90
2022/09/27 01:27:11;;;;;;;1.67;0.80;;;10.40;99.90;;;;;;5056814;28;20491;-88
2022/09/27 01:29:57;;;;;;;1.60;0.50;;;10.30;99.90;;;;;;5056487;28;20926;-88
2022/09/27 01:32:43;;;;;;;2.83;0.67;;;10.30;99.90;;;;;;5074654;28;20419;-90
2022/09/27 01:35:22;;;;;;;0.83;0.50;;;10.30;99.90;;;;;;5075518;28;20443;-89
2022/09/27 01:38:11;;;;;;;1.60;0.70;;;10.30;99.90;;;;;;5056874;28;20516;-89
2022/09/27 01:40:45;;;;;;;1.90;0.80;;;10.30;99.90;;;;;;5056540;28;21037;-88
2022/09/27 01:43:23;;;;;;;1.63;0.30;;;10.40;99.90;;;;;;5055995;28;20864;-88
2022/09/27 01:46:00;;;;;;;2.20;0.30;;;10.30;99.90;;;;;;5074511;28;20742;-88
2022/09/27 01:48:36;;;;;;;0.70;0.20;;;10.30;99.90;;;;;;5056744;28;20420;-88
2022/09/27 01:51:27;;;;;;;1.50;1.10;;;10.30;99.90;;;;;;5074891;28;20407;-89
2022/09/27 01:54:05;;;;;;;1.53;0.60;;;10.30;99.90;;;;;;5056557;28;20492;-89
2022/09/27 01:56:40;;;;;;;1.77;0.70;;;10.30;99.90;;;;;;5056805;28;20423;-89
2022/09/27 01:59:30;;;;;;;1.73;0.77;;;10.30;99.90;;;;;;5056525;28;20446;-89
2022/09/27 02:01:59;;;;;;;1.23;0.47;;;10.30;99.90;;;;;;5056658;28;20932;-88
2022/09/27 02:04:29;;;;;;;1.00;0.70;;;10.30;99.90;;;;;;5073850;28;20473;-89
2022/09/27 02:07:01;;;;;;;1.73;0.70;;;10.30;99.90;;;;;;5056278;28;20405;-90
2022/09/27 02:10:01;;;;;;;1.73;0.77;;;10.40;99.90;;;;;;5055897;28;20439;-86
2022/09/27 02:12:32;;;;;;;1.73;0.57;;;10.30;99.90;;;;;;5062644;28;20417;-87
2022/09/27 02:15:08;;;;;;;1.17;0.40;;;10.30;99.90;;;;;;5055612;28;20425;-87
2022/09/27 02:18:01;;;;;;;1.37;0.90;;;10.30;99.90;;;;;;5055580;28;20504;-87
2022/09/27 02:20:37;;;;;;;2.20;1.50;;;10.30;99.90;;;;;;5073601;28;20419;-88
2022/09/27 02:23:28;;;;;;;1.80;0.40;;;10.30;99.90;;;;;;5073368;28;20449;-88
2022/09/27 02:25:59;;;;;;;2.10;0.67;;;10.30;99.90;;;;;;5073428;28;20422;-86
2022/09/27 02:28:27;;;;;;;0.97;0.47;;;10.30;99.90;;;;;;5073057;28;20410;-88
2022/09/27 02:30:54;;;;;;;2.30;0.40;;;10.40;99.90;;;;;;5073428;28;20535;-87
2022/09/27 02:33:25;;;;;;;1.63;0.60;;;10.40;99.90;;;;;;5073189;28;20466;-87
2022/09/27 02:35:51;;;;;;;2.10;0.90;;;10.40;99.90;;;;;;5072711;28;20420;-87
2022/09/27 02:38:16;;;;;;;2.10;0.93;;;10.40;99.90;;;;;;5054210;28;20433;-88
2022/09/27 02:40:45;;;;;;;1.73;0.83;;;10.40;99.90;;;;;;5055032;28;20632;-87
2022/09/27 02:43:16;;;;;;;3.60;0.80;;;10.40;99.90;;;;;;5073351;28;20540;-87
2022/09/27 02:46:15;;;;;;;1.50;0.77;;;10.40;99.90;;;;;;5073139;28;20469;-87
2022/09/27 02:49:05;;;;;;;2.43;0.87;;;10.40;99.90;;;;;;5073290;28;20417;-86
2022/09/27 02:51:50;;;;;;;2.97;0.60;;;10.40;99.90;;;;;;5055413;28;20920;-86
2022/09/27 02:54:34;;;;;;;1.00;0.33;;;10.40;99.90;;;;;;5073462;28;20772;-87
2022/09/27 02:57:18;;;;;;;3.63;1.07;;;10.40;99.90;;;;;;5073411;28;20404;-87
2022/09/27 03:00:08;;;;;;;1.20;0.40;;;10.30;99.90;;;;;;5055349;28;20420;-88
2022/09/27 03:02:48;;;;;;;1.83;0.50;;;10.40;99.90;;;;;;5073704;28;20423;-87
2022/09/27 03:05:29;;;;;;;1.83;0.40;;;10.40;99.90;;;;;;5055409;28;20481;-89
2022/09/27 03:07:54;;;;;;;1.57;0.40;;;10.40;99.90;;;;;;5073280;28;20426;-87
2022/09/27 03:10:24;;;;;;;1.70;0.60;;;10.40;99.90;;;;;;5055251;28;21021;-86
2022/09/27 03:12:50;;;;;;;1.97;0.73;;;10.40;99.90;;;;;;5054801;28;20483;-87
2022/09/27 03:15:15;;;;;;;1.03;0.53;;;10.40;99.90;;;;;;5073045;28;20907;-87
2022/09/27 03:17:41;;;;;;;1.60;0.70;;;10.40;99.90;;;;;;5076746;28;20745;-87
2022/09/27 03:20:07;;;;;;;1.70;0.80;;;10.40;99.90;;;;;;5059270;28;20178;-87
2022/09/27 03:22:34;;;;;;;1.50;0.77;;;10.40;99.90;;;;;;5076984;28;20172;-88
2022/09/27 03:25:00;;;;;;;1.60;0.53;;;10.40;99.90;;;;;;5076961;28;20499;-90
2022/09/27 03:27:25;;;;;;;0.97;0.40;;;10.40;99.90;;;;;;5077121;28;20932;-86
2022/09/27 03:29:51;;;;;;;1.37;0.40;;;10.40;99.90;;;;;;5076418;28;20173;-88
2022/09/27 03:32:17;;;;;;;1.47;0.37;;;10.40;99.90;;;;;;5076824;28;20230;-88
2022/09/27 03:34:43;;;;;;;1.43;0.53;;;10.40;99.90;;;;;;5058797;28;20227;-88
2022/09/27 03:37:08;;;;;;;1.63;0.43;;;10.40;99.90;;;;;;5076624;28;20418;-88
2022/09/27 03:39:34;;;;;;;1.77;1.17;;;10.40;99.90;;;;;;5076554;28;20190;-88
2022/09/27 03:41:59;;;;;;;1.70;0.57;;;10.40;99.90;;;;;;5076559;28;20169;-87
2022/09/27 03:44:25;;;;;;;6.40;0.60;;;10.40;99.90;;;;;;5076059;28;20209;-87
2022/09/27 03:46:50;;;;;;;0.73;0.30;;;10.50;99.90;;;;;;5076384;28;20304;-87
2022/09/27 03:49:16;;;;;;;1.77;0.60;;;10.40;99.90;;;;;;5058229;28;20535;-87
2022/09/27 03:51:42;;;;;;;1.90;0.57;;;10.40;99.90;;;;;;5076182;28;20165;-87
2022/09/27 03:54:08;;;;;;;1.67;0.47;;;10.30;99.90;;;;;;5076005;28;20172;-87
2022/09/27 03:56:33;;;;;;;2.13;0.90;;;10.40;99.90;;;;;;5058399;28;20722;-87
2022/09/27 03:59:02;;;;;;;2.73;0.50;;;10.40;99.90;;;;;;5075687;28;20421;-87
2022/09/27 04:01:27;;;;;;;2.60;0.53;;;10.40;99.90;;;;;;5075793;28;20205;-87
2022/09/27 04:03:53;;;;;;;2.67;1.33;;;10.40;99.90;;;;;;5075863;28;20512;-87
2022/09/27 04:06:19;;;;;;;1.73;0.60;;;10.40;99.90;;;;;;5076005;28;20169;-87
2022/09/27 04:08:46;;;;;;;1.50;0.30;;;10.40;99.90;;;;;;5076115;28;20240;-88
2022/09/27 04:11:11;;;;;;;2.37;0.40;;;10.50;99.90;;;;;;5076084;28;20433;-87
2022/09/27 04:13:37;;;;;;;1.97;0.73;;;10.40;99.90;;;;;;5075979;28;20506;-87
2022/09/27 04:16:03;;;;;;;1.27;0.50;;;10.40;99.90;;;;;;5058012;28;20180;-86
2022/09/27 04:18:29;;;;;;;2.00;0.50;;;10.40;99.90;;;;;;5057447;28;20199;-86
2022/09/27 04:20:54;;;;;;;2.27;0.83;;;10.40;99.90;;;;;;5076081;28;20598;-87
2022/09/27 04:23:19;;;;;;;1.50;0.87;;;10.40;99.90;;;;;;5075832;28;20548;-87
2022/09/27 04:25:46;;;;;;;1.70;0.77;;;10.40;99.90;;;;;;5075788;28;20273;-85
2022/09/27 04:28:11;;;;;;;2.10;1.23;;;10.40;99.90;;;;;;5074057;28;20499;-85
2022/09/27 04:30:37;;;;;;;1.60;0.77;;;10.40;99.90;;;;;;5075410;28;20429;-86
2022/09/27 04:33:02;;;;;;;1.50;0.33;;;10.40;99.90;;;;;;5075449;28;20183;-87
2022/09/27 04:38:13;;;;;;;2.07;0.40;;;10.40;99.90;;;;;;5076027;28;20190;-89
2022/09/27 04:40:38;;;;;;;2.23;0.60;;;10.40;99.90;;;;;;5075804;28;20427;-88
2022/09/27 04:43:04;;;;;;;1.07;0.40;;;10.40;99.90;;;;;;5056936;28;20457;-88
2022/09/27 04:45:30;;;;;;;2.90;1.40;;;10.40;99.90;;;;;;5074899;28;20171;-88
2022/09/27 04:47:55;;;;;;;1.53;0.53;;;10.40;99.90;;;;;;5075409;28;20221;-88
2022/09/27 04:50:21;;;;;;;1.80;0.37;;;10.40;99.90;;;;;;5075300;28;20766;-87
2022/09/27 04:52:51;;;;;;;1.10;0.33;;;10.40;99.90;;;;;;5075208;28;20172;-87
2022/09/27 04:55:17;;;;;;;0.97;0.40;;;10.30;99.90;;;;;;5074801;28;20210;-86
2022/09/27 04:57:42;;;;;;;1.40;0.57;;;10.30;99.90;;;;;;5074659;28;20414;-87
2022/09/27 05:00:09;;;;;;;1.50;0.63;;;10.30;99.90;;;;;;5075645;28;20463;-89
2022/09/27 05:02:34;;;;;;;1.60;0.87;;;10.30;99.90;;;;;;5075149;28;20172;-89
2022/09/27 05:05:00;;;;;;;1.30;0.50;;;10.40;99.90;;;;;;5057775;28;20796;-88
2022/09/27 05:07:26;;;;;;;1.50;0.40;;;10.40;99.90;;;;;;5075481;28;20696;-88
2022/09/27 05:09:52;;;;;;;1.90;0.60;;;10.40;99.90;;;;;;5057514;28;20688;-88
2022/09/27 05:12:19;;;;;;;1.20;0.40;;;10.40;99.90;;;;;;5057315;28;20416;-89
2022/09/27 05:14:44;;;;;;;1.10;0.43;;;10.40;99.90;;;;;;5074338;28;20168;-85
2022/09/27 05:17:10;;;;;;;3.70;0.90;;;10.40;99.90;;;;;;5074486;28;20902;-85
2022/09/27 05:19:38;;;;;;;1.13;0.40;;;10.40;99.90;;;;;;5074549;28;20239;-85
2022/09/27 05:22:05;;;;;;;2.63;1.00;;;10.40;99.90;;;;;;5074325;28;20246;-85
2022/09/27 05:24:32;;;;;;;2.00;1.10;;;10.40;99.90;;;;;;5073773;28;20487;-85
2022/09/27 05:26:58;;;;;;;1.70;0.53;;;10.40;99.90;;;;;;5055917;28;20430;-85
2022/09/27 05:29:23;;;;;;;2.97;1.33;;;10.40;99.90;;;;;;5073539;28;20418;-86
2022/09/27 05:31:49;;;;;;;2.10;0.97;;;10.40;99.90;;;;;;5055653;28;20412;-85
2022/09/27 05:34:16;;;;;;;1.83;1.33;;;10.50;99.90;;;;;;5073790;28;20174;-85
2022/09/27 05:36:48;;;;;;;1.43;0.80;;;10.50;99.90;;;;;;5055761;28;20520;-85
2022/09/27 05:39:16;;;;;;;2.13;1.53;;;10.50;99.90;;;;;;5073181;28;20478;-85
2022/09/27 05:41:42;;;;;;;1.67;1.00;;;10.50;99.90;;;;;;5073593;28;20499;-85
2022/09/27 05:44:08;;;;;;;3.10;1.10;;;10.50;99.90;;;;;;5055131;28;20556;-84
2022/09/27 05:46:33;;;;;;;4.10;1.90;;;10.50;99.90;;;;;;5055381;28;20552;-83
2022/09/27 05:48:59;;;;;;;1.80;0.93;;;10.50;99.90;;;;;;5055651;28;20180;-84
2022/09/27 05:51:25;;;;;;;2.63;1.83;;;10.50;99.90;;;;;;5073451;28;20257;-84
2022/09/27 05:53:50;;;;;;;2.30;1.60;;;10.60;99.90;;;;;;5073413;28;20196;-84
2022/09/27 05:56:16;;;;;;;2.80;1.40;;;10.60;99.90;;;;;;5073503;28;20175;-85
2022/09/27 05:58:41;;;;;;;3.00;1.10;;;10.60;99.90;;;;;;5073366;28;20230;-84
2022/09/27 06:01:08;;;;;;;8.03;1.30;;;10.60;99.90;;;;;;5073385;28;20172;-82
2022/09/27 06:03:34;;;;;;;2.13;1.10;;;10.60;99.90;;;;;;5055227;28;20247;-85
2022/09/27 06:06:07;;;;;;;2.40;1.30;;;10.60;99.90;;;;;;5055342;28;20425;-84
2022/09/27 06:08:33;;;;;;;2.00;1.47;;;10.60;99.90;;;;;;5073266;28;20448;-85
2022/09/27 06:11:11;;;;;;;3.33;2.00;;;10.70;99.90;;;;;;5073204;28;20425;-86
2022/09/27 06:13:38;;;;;;;4.37;1.50;;;10.70;99.90;;;;;;5054912;28;20417;-85
2022/09/27 06:16:10;;;;;;;3.33;2.30;;;10.70;99.90;;;;;;5073060;28;20414;-86
2022/09/27 06:18:36;;;;;;;8.10;2.70;;;10.70;99.90;;;;;;5055164;28;20423;-86
2022/09/27 06:21:04;;;;;;;6.37;2.40;;;10.70;99.90;;;;;;5073186;28;20427;-85
2022/09/27 06:23:33;;;;;;;5.70;2.10;;;10.70;99.90;;;;;;5054861;28;20461;-85
2022/09/27 06:26:05;;;;;;;2.93;1.50;;;10.70;99.90;;;;;;5054996;28;20432;-84
2022/09/27 06:28:31;;;;;;;4.63;2.00;;;10.70;99.90;;;;;;5072663;28;20510;-89
2022/09/27 06:30:59;;;;;;;3.70;1.90;;;10.80;99.90;;;;;;5073479;28;20420;-85
2022/09/27 06:33:26;;;;;;;3.37;1.93;;;10.80;99.90;;;;;;5073037;28;20407;-88
2022/09/27 06:35:55;;;;;;;4.00;2.70;;;10.80;99.90;;;;;;5072828;28;20421;-85
2022/09/27 06:38:21;;;;;;;3.43;2.50;;;10.80;99.90;;;;;;5072824;28;20420;-84
2022/09/27 06:40:47;;;;;;;4.80;2.77;;;10.90;99.90;;;;;;5054743;28;20421;-84
2022/09/27 06:43:15;;;;;;;6.53;3.17;;;10.80;99.90;;;;;;5072467;28;20491;-84
2022/09/27 06:45:41;;;;;;;6.23;3.17;;;10.80;99.90;;;;;;5076503;28;20263;-83
2022/09/27 06:48:11;;;;;;;5.40;2.30;;;10.80;99.90;;;;;;5093179;28;20775;-84
2022/09/27 06:50:39;;;;;;;5.83;2.53;;;10.80;99.90;;;;;;5092382;28;20573;-86
2022/09/27 06:53:06;;;;;;;5.60;2.63;;;10.80;99.90;;;;;;5092909;28;20460;-84
2022/09/27 06:55:32;;;;;;;2.67;1.43;;;10.80;99.90;;;;;;5086953;28;20423;-84
2022/09/27 07:00:45;;;;;;;2.90;1.10;;;10.80;99.90;;;;;;5080266;28;20190;-85
2022/09/27 07:03:11;;;;;;;1.90;1.17;;;10.90;99.90;;;;;;5080802;28;20547;-84
2022/09/27 07:05:37;;;;;;;3.07;1.40;;;10.80;99.90;;;;;;5077532;28;20448;-87
2022/09/27 07:08:03;;;;;;;3.40;1.27;;;10.80;99.90;;;;;;5072935;28;20799;-86
2022/09/27 07:10:34;;;;;;;2.03;0.50;;;10.80;99.90;;;;;;5071300;28;20412;-84
2022/09/27 07:13:04;;;;;;;2.90;0.67;;;10.80;99.90;;;;;;5072433;28;20909;-84
2022/09/27 07:15:31;;;;;;;1.97;0.90;;;10.80;99.90;;;;;;5072611;28;20407;-83
2022/09/27 07:17:58;;;;;;;4.50;1.20;;;10.80;99.90;;;;;;5072533;28;20418;-84
2022/09/27 07:20:37;;;;;;;1.90;0.47;;;10.90;99.90;;;;;;5072534;28;20418;-84
2022/09/27 07:23:05;;;;;;;1.13;0.30;;;10.90;99.90;;;;;;5072530;28;20415;-83
2022/09/27 07:25:31;;;;;;;1.37;0.30;;;10.90;99.90;;;;;;5072453;28;20779;-84
2022/09/27 07:28:05;;;;;;;0.80;0.33;;;10.90;99.90;;;;;;5072192;28;20413;-85
2022/09/27 07:30:32;;;;;;;2.23;0.63;;;10.90;99.90;;;;;;5072392;28;20414;-86
2022/09/27 07:33:03;;;;;;;1.13;0.30;;;10.90;99.90;;;;;;5072581;28;20516;-85
2022/09/27 07:35:29;;;;;;;0.40;0.20;;;11.00;99.90;;;;;;5072337;28;20419;-83
2022/09/27 07:37:55;;;;;;;0.80;0.17;;;11.00;99.90;;;;;;5072326;28;20420;-83
2022/09/27 07:40:21;;;;;;;0.40;0.20;;;11.00;99.90;;;;;;5071129;28;20465;-85
2022/09/27 07:42:53;;;;;;;0.97;0.30;;;11.00;99.90;;;;;;5072082;28;20410;-83
2022/09/27 07:45:18;;;;;;;0.30;0.20;;;11.00;99.90;;;;;;5072301;28;20451;-86
2022/09/27 07:47:44;;;;;;;0.90;0.27;;;11.00;99.90;;;;;;5072635;28;20742;-83
2022/09/27 07:50:09;;;;;;;1.13;0.20;;;11.10;99.90;;;;;;5073088;28;20230;-88
2022/09/27 07:52:40;;;;;;;0.87;0.40;;;11.10;99.90;;;;;;5072931;28;20688;-88
2022/09/27 07:55:06;;;;;;;1.17;0.33;;;11.20;99.90;;;;;;5072826;28;20193;-87
2022/09/27 07:57:32;;;;;;;0.40;0.20;;;11.30;99.90;;;;;;5072450;28;20406;-90
2022/09/27 07:59:57;;;;;;;0.60;0.20;;;11.30;99.90;;;;;;5072953;28;20411;-88
2022/09/27 08:02:23;;;;;;;0.60;0.20;;;11.40;99.90;;;;;;5073888;28;20632;-89
2022/09/27 08:04:48;;;;;;;0.40;0.20;;;11.50;99.90;;;;;;5076295;28;20299;-87
2022/09/27 08:07:14;;;;;;;0.50;0.20;;;11.60;99.90;;;;;;5076049;28;20244;-85
2022/09/27 08:09:40;;;;;;;0.60;0.20;;;11.60;99.90;;;;;;5076138;28;20170;-87
2022/09/27 08:12:05;;;;;;;1.50;0.20;;;11.70;99.90;;;;;;5076095;28;20175;-89
2022/09/27 08:14:31;;;;;;;1.30;0.20;;;11.90;99.90;;;;;;5076638;28;20173;-90
2022/09/27 08:16:56;;;;;;;0.70;0.20;;;12.00;99.90;;;;;;5058528;28;20531;-88
2022/09/27 08:19:22;;;;;;;0.97;0.30;;;11.90;99.90;;;;;;5076090;28;20249;-89
2022/09/27 08:21:50;;;;;;;0.40;0.20;;;11.70;99.90;;;;;;5075682;28;20525;-86
2022/09/27 08:24:15;;;;;;;2.37;0.10;;;11.70;99.90;;;;;;5041445;28;20242;-87
2022/09/27 08:26:41;;;;;;;0.90;0.10;;;11.70;99.90;;;;;;5075265;28;20414;-86
2022/09/27 08:29:06;;;;;;;0.40;0.20;;;11.70;99.90;;;;;;5075376;28;20623;-85
2022/09/27 08:31:31;;;;;;;1.90;0.23;;;11.80;99.90;;;;;;5075896;28;20217;-86
2022/09/27 08:33:57;;;;;;;0.70;0.20;;;11.90;99.90;;;;;;5075428;28;20208;-86
2022/09/27 08:36:23;;;;;;;0.43;0.20;;;11.80;99.90;;;;;;5075386;28;20171;-87
2022/09/27 08:38:53;;;;;;;0.93;0.47;;;11.60;99.90;;;;;;5075418;28;20183;-86
2022/09/27 08:41:37;;;;;;;1.10;0.10;;;11.80;99.90;;;;;;5075030;28;20172;-85
2022/09/27 08:44:26;;;;;;;0.40;0.20;;;11.80;99.90;;;;;;5056842;28;20478;-86
2022/09/27 08:47:17;;;;;;;2.67;0.30;;;11.80;99.90;;;;;;5075106;28;20458;-87
2022/09/27 08:49:52;;;;;;;0.70;0.20;;;11.70;99.90;;;;;;5057074;28;20415;-85
2022/09/27 08:52:30;;;;;;;2.20;0.30;;;11.60;99.90;;;;;;5075624;28;20503;-87
2022/09/27 08:55:00;;;;;;;0.60;0.20;;;11.60;99.90;;;;;;5057416;28;20429;-86
2022/09/27 08:57:25;;;;;;;0.97;0.20;;;11.60;99.90;;;;;;5074907;28;20426;-89
2022/09/27 09:00:07;;;;;;;1.57;0.60;;;11.60;99.90;;;;;;5057336;28;20425;-88
2022/09/27 09:02:34;;;;;;;0.40;0.20;;;11.70;99.90;;;;;;5057466;28;20175;-88
2022/09/27 09:05:07;;;;;;;0.50;0.30;;;11.60;99.90;;;;;;5074685;28;20467;-85
2022/09/27 09:07:51;;;;;;;0.93;0.20;;;11.60;99.90;;;;;;5056878;28;20474;-85
2022/09/27 09:13:50;;;;;;;0.43;0.20;;;11.60;99.90;;;;;;5073640;28;20773;-86
2022/09/27 09:16:41;;;;;;;0.50;0.20;;;11.60;99.90;;;;;;5074431;28;20409;-85
2022/09/27 09:19:33;;;;;;;0.40;0.20;;;11.50;99.90;;;;;;5074281;28;20402;-87
2022/09/27 09:22:27;;;;;;;1.30;0.30;;;11.40;99.90;;;;;;5074510;28;20739;-85
2022/09/27 09:25:20;;;;;;;0.70;0.20;;;11.30;99.90;;;;;;5074200;28;20468;-88
2022/09/27 09:27:52;;;;;;;0.40;0.10;;;11.30;99.90;;;;;;5073902;28;20430;-85
2022/09/27 09:30:23;;;;;;;0.40;0.10;;;11.10;99.90;;;;;;5074169;28;20457;-85
2022/09/27 09:33:27;;;;;;;0.40;0.10;;;11.10;99.90;;;;;;5074222;28;20417;-86
2022/09/27 09:36:04;;;;;;;0.73;0.30;;;11.10;99.90;;;;;;5074381;28;20420;-86
2022/09/27 09:38:58;;;;;;;0.60;0.20;;;11.20;99.90;;;;;;5074239;28;20469;-86
2022/09/27 09:41:30;;;;;;;0.63;0.20;;;11.30;99.90;;;;;;5074383;28;20409;-86
2022/09/27 09:44:05;;;;;;;0.60;0.20;;;11.40;99.90;;;;;;5074352;28;20468;-84
2022/09/27 09:46:45;;;;;;;1.00;0.20;;;11.40;99.90;;;;;;5073862;28;20462;-84
2022/09/27 09:49:27;;;;;;;0.70;0.20;;;11.40;99.90;;;;;;5055940;28;20948;-85
2022/09/27 09:52:26;;;;;;;1.73;0.30;;;11.50;99.90;;;;;;5073818;28;20417;-85
2022/09/27 09:54:55;;;;;;;0.50;0.20;;;11.60;99.90;;;;;;5060362;28;20432;-84
2022/09/27 09:57:37;;;;;;;0.50;0.20;;;11.60;99.90;;;;;;5055331;28;20407;-87
2022/09/27 10:00:20;;;;;;;1.03;0.57;;;11.70;99.90;;;;;;5073765;28;20417;-84
2022/09/27 10:02:47;;;;;;;0.40;0.20;;;11.80;99.90;;;;;;5073707;28;20404;-85
2022/09/27 10:05:21;;;;;;;1.50;0.30;;;11.90;99.90;;;;;;5073460;28;20476;-83
2022/09/27 10:07:49;;;;;;;0.83;0.20;;;12.00;99.90;;;;;;5055696;28;20786;-86
2022/09/27 10:10:16;;;;;;;0.93;0.20;;;12.00;99.90;;;;;;5055556;28;20423;-85
2022/09/27 10:12:43;;;;;;;1.57;0.20;;;12.00;99.90;;;;;;5072966;28;20437;-87
2022/09/27 10:15:21;;;;;;;1.77;0.20;;;12.00;99.90;;;;;;5073441;28;20948;-85
2022/09/27 10:17:50;;;;;;;0.70;0.20;;;12.10;99.90;;;;;;5073294;28;20435;-86
2022/09/27 10:20:38;;;;;;;0.53;0.20;;;12.10;99.90;;;;;;5073424;28;20469;-86
2022/09/27 10:23:23;;;;;;;0.43;0.20;;;12.40;99.90;;;;;;5073061;28;20425;-86
2022/09/27 10:25:59;;;;;;;0.57;0.20;;;12.50;99.90;;;;;;5073365;28;20565;-85
2022/09/27 10:28:42;;;;;;;2.03;0.40;;;12.70;99.90;;;;;;5072842;28;20515;-86
2022/09/27 10:31:10;;;;;;;0.60;0.27;;;12.80;99.90;;;;;;5073157;28;20506;-87
2022/09/27 10:33:49;;;;;;;0.50;0.20;;;12.80;99.90;;;;;;5072853;28;20412;-86
2022/09/27 10:36:28;;;;;;;2.63;0.20;;;12.70;99.90;;;;;;5073224;28;20783;-84
2022/09/27 10:38:56;;;;;;;0.30;0.20;;;12.60;99.90;;;;;;5073257;28;20413;-87
2022/09/27 10:41:36;;;;;;;1.23;0.20;;;12.60;99.90;;;;;;5072620;28;20408;-85
2022/09/27 10:44:20;;;;;;;0.50;0.20;;;12.60;99.90;;;;;;5054835;28;20990;-85
2022/09/27 10:46:52;;;;;;;0.90;0.27;;;12.40;99.90;;;;;;5072763;28;21032;-88
2022/09/27 10:49:29;;;;;;;0.53;0.30;;;12.50;99.90;;;;;;5072894;28;20415;-85
2022/09/27 10:52:03;;;;;;;0.50;0.20;;;12.40;99.90;;;;;;5073035;28;20402;-85
2022/09/27 10:54:33;;;;;;;0.33;0.10;;;12.60;99.90;;;;;;5072879;28;20793;-85
2022/09/27 10:57:15;;;;;;;0.37;0.20;;;12.70;99.90;;;;;;5072709;28;20457;-88
2022/09/27 10:59:44;;;;;;;0.93;0.20;;;12.60;99.90;;;;;;5055033;28;20917;-85
2022/09/27 11:02:28;;;;;;;0.83;0.50;;;12.60;99.90;;;;;;5073179;28;20405;-86
2022/09/27 11:05:28;;;;;;;2.60;0.10;;;12.60;99.90;;;;;;5072881;28;20556;-86
2022/09/27 11:07:56;;;;;;;0.83;0.20;;;12.40;99.90;;;;;;5072875;28;20421;-86
2022/09/27 11:10:27;;;;;;;0.70;0.20;;;12.50;99.90;;;;;;5054794;28;20420;-86
2022/09/27 11:13:14;;;;;;;0.40;0.20;;;12.50;99.90;;;;;;5072386;28;20496;-86
2022/09/27 11:16:13;;;;;;;1.27;0.20;;;13.00;99.90;;;;;;5072685;28;20420;-86
2022/09/27 11:19:12;;;;;;;0.50;0.20;;;13.10;99.90;;;;;;5072579;28;20440;-84
2022/09/27 11:22:03;;;;;;;0.80;0.40;;;13.10;99.90;;;;;;5072389;28;20416;-85
2022/09/27 11:24:47;;;;;;;0.40;0.20;;;13.10;99.90;;;;;;5072269;28;20966;-84
2022/09/27 11:27:34;;;;;;;0.80;0.20;;;13.00;99.90;;;;;;5054092;28;20477;-83
2022/09/27 11:30:22;;;;;;;0.33;0.20;;;13.20;99.90;;;;;;5072270;28;20413;-86
2022/09/27 11:33:12;;;;;;;0.40;0.10;;;13.30;99.90;;;;;;5054475;28;20773;-86
2022/09/27 11:35:58;;;;;;;0.57;0.20;;;13.40;99.90;;;;;;5054354;28;20421;-85
2022/09/27 11:38:31;;;;;;;0.80;0.33;;;13.40;99.90;;;;;;5075506;28;20909;-84
2022/09/27 11:41:33;;;;;;;0.30;0.20;;;13.40;99.90;;;;;;5076207;28;20411;-84
2022/09/27 11:44:34;;;;;;;0.57;0.20;;;13.50;99.90;;;;;;5075945;28;20459;-85
2022/09/27 11:47:15;;;;;;;0.93;0.20;;;13.30;99.90;;;;;;5075913;28;20468;-85
2022/09/27 11:50:18;;;;;;;0.40;0.20;;;13.20;99.90;;;;;;5076177;28;20417;-85
2022/09/27 11:52:57;;;;;;;0.30;0.20;;;13.40;99.90;;;;;;5076118;28;20408;-84
2022/09/27 11:55:58;;;;;;;1.80;0.10;;;13.30;99.90;;;;;;5075994;28;20413;-87
2022/09/27 11:59:00;;;;;;;0.63;0.20;;;13.50;99.90;;;;;;5075703;28;20449;-86
2022/09/27 12:01:49;;;;;;;0.30;0.20;;;13.90;99.90;;;;;;5052093;28;20850;-88
2022/09/27 12:04:29;;;;;;;0.70;0.20;;;14.10;99.90;;;;;;5051955;28;20979;-91
2022/09/27 12:07:26;;;;;;;0.50;0.20;;;14.10;99.90;;;;;;5078275;28;20478;-88
2022/09/27 12:09:58;;;;;;;0.40;0.20;;;14.20;99.90;;;;;;5061980;28;20412;-91
2022/09/27 12:12:34;;;;;;;0.30;0.20;;;13.90;99.90;;;;;;5060133;28;20445;-92
2022/09/27 12:15:13;;;;;;;0.30;0.20;;;13.70;99.90;;;;;;5077912;28;20422;-92
2022/09/27 12:17:44;;;;;;;0.30;0.20;;;13.40;99.90;;;;;;5077499;28;20416;-92
2022/09/27 12:20:33;;;;;;;0.30;0.20;;;13.40;99.90;;;;;;5079728;28;20421;-91
2022/09/27 12:23:10;;;;;;;0.60;0.20;;;13.40;99.90;;;;;;5063796;28;20414;-85
2022/09/27 12:25:39;;;;;;;0.47;0.20;;;13.40;99.90;;;;;;5058806;28;20420;-92
2022/09/27 12:28:33;;;;;;;0.77;0.30;;;13.20;99.90;;;;;;5060254;28;20431;-92
2022/09/27 12:31:07;;;;;;;0.50;0.20;;;13.30;99.90;;;;;;5058098;28;20421;-92
2022/09/27 12:34:08;;;;;;;0.50;0.10;;;13.20;99.90;;;;;;5059465;28;20764;-85
2022/09/27 12:36:42;;;;;;;0.50;0.20;;;13.00;99.90;;;;;;5038421;28;20418;-94
2022/09/27 12:39:24;;;;;;;0.60;0.20;;;12.90;99.90;;;;;;5074336;28;20426;-93
2022/09/27 12:42:00;;;;;;;0.50;0.20;;;13.10;99.90;;;;;;5081567;28;20414;-93
2022/09/27 12:44:27;;;;;;;0.40;0.20;;;13.40;99.90;;;;;;5063046;28;20478;-87
2022/09/27 12:47:28;;;;;;;0.30;0.20;;;13.50;99.90;;;;;;5082107;28;20455;-85
2022/09/27 12:50:20;;;;;;;0.30;0.20;;;13.50;99.90;;;;;;5074962;28;20418;-93
2022/09/27 12:52:52;;;;;;;0.50;0.10;;;13.10;99.90;;;;;;5060161;28;20512;-89
2022/09/27 12:55:36;;;;;;;0.70;0.20;;;12.80;99.90;;;;;;5078927;28;20400;-83
2022/09/27 12:58:52;;;;;;;0.30;0.20;;;12.50;99.90;;;;;;5074856;28;20415;-87
2022/09/27 13:01:48;;;;;;;0.30;0.10;;;12.50;99.90;;;;;;5030202;28;20418;-86
2022/09/27 13:04:40;;;;;;;0.40;0.10;;;12.50;99.90;;;;;;5074874;28;20791;-87
2022/09/27 13:07:09;;;;;;;0.70;0.20;;;12.50;99.90;;;;;;5075356;28;20414;-88
2022/09/27 13:09:58;;;;;;;0.80;0.30;;;12.50;99.90;;;;;;5057749;28;20427;-86
2022/09/27 13:12:26;;;;;;;1.33;0.20;;;12.50;99.90;;;;;;5072853;28;20422;-92
2022/09/27 13:15:11;;;;;;;0.37;0.20;;;12.50;99.90;;;;;;5054202;28;20437;-85
2022/09/27 13:17:39;;;;;;;1.80;0.40;;;12.60;99.90;;;;;;5070782;28;20836;-87
2022/09/27 13:20:34;;;;;;;0.50;0.20;;;12.70;99.90;;;;;;5035910;28;20886;-89
2022/09/27 13:23:16;;;;;;;0.30;0.20;;;12.70;99.90;;;;;;5053927;28;20404;-85
2022/09/27 13:25:56;;;;;;;1.27;0.23;;;12.80;99.90;;;;;;5036209;28;20537;-87
2022/09/27 13:28:31;;;;;;;0.60;0.27;;;12.90;99.90;;;;;;5036426;28;20424;-86
2022/09/27 13:31:08;;;;;;;0.50;0.20;;;12.90;99.90;;;;;;5036726;28;20443;-87